Time;durP1;ratioP1;P1;durP2;ratioP2;P2;SDS_P1;SDS_P2;PMS_P1;PMS_P2;Temp;Humidity;BMP_temperature;BMP_pressure;BME280_temperature;BME280_humidity;BME280_pressure;Samples;Min_cycle;Max_cycle;Signal;HPM_P1;HPM_P2
2023/12/13 00:17:18;;;;;;;;;;;;;;;;;;;;;
2023/12/13 00:23:58;;;;;;;;;;;;;;;;;;;;;
2023/12/13 00:26:56;;;;;;;152.40;54.70;;;6.60;99.90;;;;;;6253629;23;20091;-93
2023/12/13 00:33:38;;;;;;;;;;;;;;;;;;;;;
2023/12/13 00:46:22;;;;;;;;;;;;;;;;;;;;;
2023/12/13 00:52:40;;;;;;;165.90;61.03;;;7.10;99.90;;;;;;6219524;23;20031;-93
2023/12/13 00:59:22;;;;;;;143.40;52.95;;;8.10;99.90;;;;;;6174297;23;20074;-93
2023/12/13 01:02:21;;;;;;;;;;;;;;;;;;;;;
2023/12/13 01:05:09;;;;;;;220.82;67.40;;;7.00;99.90;;;;;;6252473;23;20016;-93
2023/12/13 01:08:34;;;;;;;;;;;;;;;;;;;;;
2023/12/13 01:11:31;;;;;;;212.63;70.13;;;7.10;99.90;;;;;;6246455;23;20016;-93
2023/12/13 01:21:08;;;;;;;196.23;66.75;;;7.00;99.90;;;;;;6167455;23;20032;-93
2023/12/13 01:24:03;;;;;;;174.35;59.17;;;6.70;99.90;;;;;;6189377;23;20049;-92
2023/12/13 01:30:41;;;;;;;176.77;63.20;;;7.00;99.90;;;;;;6180573;23;20079;-92
2023/12/13 01:33:49;;;;;;;168.20;60.30;;;7.00;99.90;;;;;;6158485;23;20071;-93
2023/12/13 01:36:33;;;;;;;190.68;66.68;;;6.90;99.90;;;;;;6190537;23;20021;-92
2023/12/13 01:46:11;;;;;;;;;;;;;;;;;;;;;
2023/12/13 01:49:30;;;;;;;177.70;62.03;;;7.00;99.90;;;;;;6215781;23;20372;-92
2023/12/13 01:52:31;;;;;;;;;;;;;;;;;;;;;
2023/12/13 01:55:43;;;;;;;;;;;;;;;;;;;;;
2023/12/13 02:01:55;;;;;;;189.07;67.80;;;7.00;99.90;;;;;;6145581;23;20048;-93
2023/12/13 02:04:37;;;;;;;;;;;;;;;;;;;;;
2023/12/13 02:10:26;;;;;;;;;;;;;;;;;;;;;
2023/12/13 02:13:08;;;;;;;157.10;60.05;;;7.20;99.90;;;;;;6226919;23;20023;-94
2023/12/13 02:16:08;;;;;;;;;;;;;;;;;;;;;
2023/12/13 02:22:37;;;;;;;;;;;;;;;;;;;;;
2023/12/13 02:25:45;;;;;;;147.00;55.03;;;7.00;99.90;;;;;;6244121;23;20024;-92
2023/12/13 02:28:44;;;;;;;143.63;54.28;;;6.40;99.90;;;;;;6216786;23;20012;-92
2023/12/13 02:34:54;;;;;;;;;;;;;;;;;;;;;
2023/12/13 02:44:04;;;;;;;;;;;;;;;;;;;;;
2023/12/13 02:46:58;;;;;;;98.55;40.67;;;7.00;99.90;;;;;;6245005;23;20070;-93
2023/12/13 02:50:18;;;;;;;;;;;;;;;;;;;;;
2023/12/13 02:53:52;;;;;;;;;;;;;;;;;;;;;
2023/12/13 03:00:09;;;;;;;;;;;;;;;;;;;;;
2023/12/13 03:03:08;;;;;;;92.03;38.40;;;6.90;99.90;;;;;;6245155;23;20056;-93
2023/12/13 03:05:54;;;;;;;80.40;33.63;;;6.90;99.90;;;;;;6224398;23;20023;-92
2023/12/13 03:08:38;;;;;;;;;;;;;;;;;;;;;
2023/12/13 03:14:26;;;;;;;70.13;32.67;;;7.00;99.90;;;;;;6182914;23;20035;-93
2023/12/13 03:17:49;;;;;;;81.18;35.63;;;6.00;99.90;;;;;;6195674;23;20016;-93
2023/12/13 03:21:05;;;;;;;70.75;32.33;;;7.00;99.90;;;;;;6164139;23;20456;-93
2023/12/13 03:24:15;;;;;;;88.82;35.25;;;7.60;99.90;;;;;;6149916;23;20021;-93
2023/12/13 03:56:53;;;;;;;;;;;;;;;;;;;;;
2023/12/13 04:00:33;;;;;;;;;;;;;;;;;;;;;
2023/12/13 04:17:40;;;;;;;;;;;;;;;;;;;;;
2023/12/13 04:24:03;;;;;;;;;;;;;;;;;;;;;
2023/12/13 04:27:39;;;;;;;;;;;;;;;;;;;;;
2023/12/13 04:30:43;;;;;;;76.32;33.20;;;6.60;99.90;;;;;;6133617;23;20021;-93
2023/12/13 04:41:04;;;;;;;;;;;;;;;;;;;;;
2023/12/13 04:52:09;;;;;;;;;;;;;;;;;;;;;
2023/12/13 05:02:53;;;;;;;;;;;;;;;;;;;;;
2023/12/13 05:16:33;;;;;;;77.45;36.30;;;7.10;99.90;;;;;;5910569;24;20564;-93
2023/12/13 05:20:11;;;;;;;;;;;;;;;;;;;;;
2023/12/13 05:52:18;;;;;;;86.72;39.95;;;6.50;99.90;;;;;;5990033;23;20533;-93
2023/12/13 05:55:23;;;;;;;;;;;;;;;;;;;;;
2023/12/13 06:02:09;;;;;;;;;;;;;;;;;;;;;
2023/12/13 06:15:59;;;;;;;99.30;44.45;;;6.10;99.90;;;;;;6005728;23;20028;-93
2023/12/13 06:19:34;;;;;;;;;;;;;;;;;;;;;
2023/12/13 06:44:05;;;;;;;94.10;40.42;;;7.00;99.90;;;;;;5957607;24;20032;-94
2023/12/13 06:50:32;;;;;;;;;;;;;;;;;;;;;
2023/12/13 06:53:56;;;;;;;90.18;43.33;;;6.80;99.90;;;;;;6087428;23;20025;-94
2023/12/13 07:01:12;;;;;;;;;;;;;;;;;;;;;
2023/12/13 07:10:39;;;;;;;112.60;48.10;;;7.00;99.90;;;;;;5840195;24;20014;-93
2023/12/13 07:13:30;;;;;;;86.15;41.67;;;7.00;99.90;;;;;;5850994;24;20080;-95
2023/12/13 07:16:00;;;;;;;114.07;46.50;;;6.30;99.90;;;;;;5999815;23;20040;-91
2023/12/13 07:18:28;;;;;;;118.55;48.30;;;7.10;99.90;;;;;;6075939;22;20022;-93
2023/12/13 07:21:00;;;;;;;128.57;54.75;;;5.90;99.90;;;;;;6218157;23;20023;-92
2023/12/13 07:23:38;;;;;;;;;;;;;;;;;;;;;
2023/12/13 07:26:12;;;;;;;82.93;40.35;;;7.00;99.90;;;;;;6221448;23;20017;-91
2023/12/13 07:28:48;;;;;;;104.38;45.95;;;7.00;99.90;;;;;;6194202;23;20012;-90
2023/12/13 07:31:14;;;;;;;101.70;45.27;;;7.00;99.90;;;;;;6219497;23;20046;-88
2023/12/13 07:33:43;;;;;;;105.43;46.33;;;6.90;99.90;;;;;;6219021;23;20061;-88
2023/12/13 07:39:09;;;;;;;107.65;48.75;;;7.00;99.90;;;;;;6220833;23;20016;-90
2023/12/13 07:41:37;;;;;;;113.40;47.58;;;7.00;99.90;;;;;;6218498;23;20020;-93
2023/12/13 07:44:03;;;;;;;84.75;41.92;;;7.00;99.90;;;;;;6195181;23;20131;-92
2023/12/13 07:46:29;;;;;;;93.95;43.63;;;7.00;99.90;;;;;;6219051;23;20070;-92
2023/12/13 07:48:57;;;;;;;98.43;41.70;;;7.00;99.90;;;;;;6218716;23;20012;-92
2023/12/13 07:51:23;;;;;;;92.68;43.67;;;6.80;99.90;;;;;;6220900;23;20462;-92
2023/12/13 07:53:53;;;;;;;95.17;46.80;;;7.10;99.90;;;;;;6217950;23;20055;-92
2023/12/13 07:56:20;;;;;;;98.13;43.40;;;7.00;99.90;;;;;;6218391;23;20020;-91
2023/12/13 07:58:50;;;;;;;88.10;44.10;;;7.00;99.90;;;;;;6217603;23;20020;-91
2023/12/13 08:01:16;;;;;;;105.93;48.10;;;7.10;99.90;;;;;;6192134;23;20035;-90
2023/12/13 08:03:45;;;;;;;94.30;45.07;;;7.00;99.90;;;;;;6242688;23;20020;-90
2023/12/13 08:06:12;;;;;;;101.90;47.00;;;7.10;99.90;;;;;;6192990;23;20258;-90
2023/12/13 08:08:41;;;;;;;96.80;45.05;;;7.00;99.90;;;;;;6217633;23;20027;-90
2023/12/13 08:11:12;;;;;;;100.43;45.83;;;7.10;99.90;;;;;;6217577;23;20371;-92
2023/12/13 08:13:42;;;;;;;106.07;48.65;;;7.10;99.90;;;;;;6217259;23;20444;-91
2023/12/13 08:16:09;;;;;;;89.70;41.65;;;7.20;99.90;;;;;;6217694;23;20074;-90
2023/12/13 08:18:41;;;;;;;105.10;46.60;;;7.10;99.90;;;;;;6242592;23;20090;-91
2023/12/13 08:21:07;;;;;;;90.63;42.75;;;7.10;99.90;;;;;;6194908;23;20020;-91
2023/12/13 08:23:34;;;;;;;100.35;45.75;;;7.10;99.90;;;;;;6220434;23;20379;-89
2023/12/13 08:26:12;;;;;;;106.28;48.13;;;7.10;99.90;;;;;;6219641;23;20028;-90
2023/12/13 08:28:43;;;;;;;107.85;47.45;;;7.10;99.90;;;;;;6245318;23;20016;-91
2023/12/13 08:31:14;;;;;;;107.60;45.55;;;7.10;99.90;;;;;;6194638;23;20099;-91
2023/12/13 08:33:43;;;;;;;116.28;48.72;;;7.10;99.90;;;;;;6218908;23;20023;-94
2023/12/13 08:36:15;;;;;;;126.20;49.05;;;7.20;99.90;;;;;;6219062;23;20073;-90
2023/12/13 08:38:41;;;;;;;119.97;48.20;;;7.10;99.90;;;;;;6195129;23;20020;-95
2023/12/13 08:41:20;;;;;;;112.07;50.00;;;7.10;99.90;;;;;;6220951;23;20103;-88
2023/12/13 08:43:46;;;;;;;115.55;50.40;;;7.20;99.90;;;;;;6219124;23;20020;-92
2023/12/13 08:46:15;;;;;;;90.10;43.87;;;7.10;99.90;;;;;;6219772;23;20016;-89
2023/12/13 08:48:45;;;;;;;108.00;49.92;;;7.10;99.90;;;;;;6245122;23;20452;-89
2023/12/13 08:51:14;;;;;;;99.47;44.05;;;7.10;99.90;;;;;;6194867;23;20051;-91
2023/12/13 08:53:39;;;;;;;111.32;46.55;;;7.20;99.90;;;;;;6195463;23;20035;-91
2023/12/13 08:56:25;;;;;;;97.70;43.20;;;7.20;99.90;;;;;;6219467;23;20020;-94
2023/12/13 08:59:02;;;;;;;105.65;45.90;;;8.00;99.90;;;;;;6219167;23;20012;-92
2023/12/13 09:01:30;;;;;;;89.68;40.92;;;7.30;99.90;;;;;;6193580;23;20099;-91
2023/12/13 09:03:59;;;;;;;109.45;48.75;;;7.20;99.90;;;;;;6194497;23;20016;-90
2023/12/13 09:06:25;;;;;;;106.88;46.88;;;7.20;99.90;;;;;;6219319;23;20020;-91
2023/12/13 09:08:51;;;;;;;117.65;48.80;;;7.40;99.90;;;;;;6195125;23;20524;-90
2023/12/13 09:11:25;;;;;;;116.87;49.30;;;7.40;99.90;;;;;;6220186;23;20051;-91
2023/12/13 09:13:54;;;;;;;106.70;47.00;;;7.30;99.90;;;;;;6195783;23;20016;-91
2023/12/13 09:16:25;;;;;;;116.13;51.47;;;7.70;99.90;;;;;;6195110;23;20348;-90
2023/12/13 09:18:51;;;;;;;110.75;49.08;;;7.40;99.90;;;;;;6219672;23;20012;-91
2023/12/13 09:21:27;;;;;;;111.70;47.50;;;7.30;99.90;;;;;;6220576;23;20027;-92
2023/12/13 09:23:53;;;;;;;112.50;48.65;;;7.40;99.90;;;;;;6221028;23;20023;-91
2023/12/13 09:26:21;;;;;;;114.23;51.97;;;7.40;99.90;;;;;;6196910;23;20016;-93
2023/12/13 09:28:53;;;;;;;103.80;49.60;;;7.20;99.90;;;;;;6220652;23;20015;-92
2023/12/13 09:31:21;;;;;;;117.65;53.13;;;7.40;99.90;;;;;;6220432;23;20023;-93
2023/12/13 09:34:12;;;;;;;129.05;54.85;;;7.50;99.90;;;;;;6194966;23;20022;-95
2023/12/13 09:36:48;;;;;;;;;;;;;;;;;;;;;
2023/12/13 09:39:16;;;;;;;131.55;52.58;;;7.60;99.90;;;;;;6245315;23;20095;-92
2023/12/13 09:42:00;;;;;;;142.75;54.17;;;7.50;99.90;;;;;;6196993;23;20020;-95
2023/12/13 09:44:26;;;;;;;147.40;56.95;;;6.40;99.90;;;;;;6220830;23;20038;-93
2023/12/13 09:47:09;;;;;;;132.38;54.65;;;7.70;99.90;;;;;;6220356;23;20020;-93
2023/12/13 09:49:42;;;;;;;117.10;49.55;;;7.50;99.90;;;;;;6220738;23;20099;-92
2023/12/13 09:52:13;;;;;;;121.32;49.70;;;7.60;99.90;;;;;;6220347;23;20054;-92
2023/12/13 09:54:44;;;;;;;116.13;49.17;;;7.40;99.90;;;;;;6220849;23;20024;-91
2023/12/13 09:57:14;;;;;;;115.85;48.42;;;7.60;99.90;;;;;;6223318;23;20048;-92
2023/12/13 09:59:41;;;;;;;103.15;47.83;;;8.40;99.90;;;;;;6220565;23;20047;-93
2023/12/13 10:02:12;;;;;;;111.53;47.17;;;7.70;99.90;;;;;;6219926;23;20444;-93
2023/12/13 10:04:48;;;;;;;99.10;45.30;;;7.70;99.90;;;;;;6220202;23;20020;-92
2023/12/13 10:07:17;;;;;;;101.90;45.00;;;7.70;99.90;;;;;;6195850;23;20444;-92
2023/12/13 10:09:45;;;;;;;113.13;47.72;;;8.20;99.90;;;;;;6219840;23;20023;-92
2023/12/13 10:12:15;;;;;;;101.70;46.47;;;7.70;99.90;;;;;;6219417;23;20020;-92
2023/12/13 10:14:49;;;;;;;106.28;47.17;;;7.70;99.90;;;;;;6220699;23;20027;-93
2023/12/13 10:17:27;;;;;;;113.35;48.92;;;7.70;99.90;;;;;;6195948;23;20016;-93
2023/12/13 10:20:10;;;;;;;109.60;46.60;;;7.80;99.90;;;;;;6197186;23;20030;-93
2023/12/13 10:22:38;;;;;;;107.97;48.05;;;7.70;99.90;;;;;;6196832;23;20074;-92
2023/12/13 10:28:35;;;;;;;97.45;43.45;;;7.80;99.90;;;;;;6205280;23;20506;-93
2023/12/13 10:31:05;;;;;;;107.55;45.72;;;7.80;99.90;;;;;;6196323;23;20016;-92
2023/12/13 10:33:31;;;;;;;95.57;43.25;;;7.80;99.90;;;;;;6220319;23;20103;-93
2023/12/13 10:35:59;;;;;;;95.88;44.47;;;7.80;99.90;;;;;;6219885;23;20020;-95
2023/12/13 10:38:26;;;;;;;93.22;43.13;;;7.80;99.90;;;;;;6219713;23;20012;-93
2023/12/13 10:40:54;;;;;;;;;;;7.70;99.90;;;;;;6220221;23;20055;-92
2023/12/13 10:43:30;;;;;;;;;;;;;;;;;;;;;
2023/12/13 10:46:05;;;;;;;89.57;42.40;;;7.80;99.90;;;;;;6244584;23;20019;-94
2023/12/13 10:48:35;;;;;;;103.47;47.67;;;7.90;99.90;;;;;;6219986;23;20336;-92
2023/12/13 10:51:08;;;;;;;89.90;43.05;;;7.80;99.90;;;;;;6220243;23;20022;-92
2023/12/13 10:53:34;;;;;;;93.40;40.55;;;7.80;99.90;;;;;;6219804;23;20077;-92
2023/12/13 10:56:04;;;;;;;;;;;8.30;99.90;;;;;;6222014;23;20027;-95
2023/12/13 10:58:35;;;;;;;102.07;45.05;;;7.80;99.90;;;;;;6219584;23;19916;-93
2023/12/13 11:01:19;;;;;;;83.35;42.15;;;7.00;99.90;;;;;;6219685;23;20332;-94
2023/12/13 11:04:16;;;;;;;89.25;42.38;;;7.90;99.90;;;;;;6219221;23;20023;-92
2023/12/13 11:06:51;;;;;;;119.47;49.03;;;7.80;99.90;;;;;;6219588;23;20020;-94
2023/12/13 11:09:30;;;;;;;106.35;47.38;;;7.90;99.90;;;;;;6219836;23;20020;-93
2023/12/13 11:12:12;;;;;;;95.63;44.38;;;7.90;99.90;;;;;;6196361;23;20024;-93
2023/12/13 11:14:50;;;;;;;104.35;45.85;;;7.00;99.90;;;;;;6219824;23;20448;-93
2023/12/13 11:17:21;;;;;;;98.55;43.95;;;7.90;99.90;;;;;;6219035;23;20059;-92
2023/12/13 11:19:47;;;;;;;91.78;43.63;;;7.90;99.90;;;;;;6219458;23;20016;-92
2023/12/13 11:22:22;;;;;;;86.50;38.92;;;8.10;99.90;;;;;;6218556;23;20027;-92
2023/12/13 11:24:59;;;;;;;103.47;44.95;;;7.90;99.90;;;;;;6219490;23;20019;-93
2023/12/13 11:27:35;;;;;;;98.70;44.35;;;7.90;99.90;;;;;;6219399;23;20012;-94
2023/12/13 11:30:14;;;;;;;92.07;41.97;;;8.00;99.90;;;;;;6195641;23;20012;-92
2023/12/13 11:32:51;;;;;;;94.72;40.78;;;8.00;99.90;;;;;;6219937;23;20023;-92
2023/12/13 11:35:45;;;;;;;;;;;;;;;;;;;;;
2023/12/13 11:38:14;;;;;;;90.00;41.20;;;7.90;99.90;;;;;;6219439;23;20020;-92
2023/12/13 11:40:51;;;;;;;94.95;43.60;;;8.00;99.90;;;;;;6193302;23;20069;-93
2023/12/13 11:43:22;;;;;;;85.55;39.60;;;7.90;99.90;;;;;;6218178;23;20016;-93
2023/12/13 11:46:05;;;;;;;86.55;39.92;;;7.40;99.90;;;;;;6218863;23;20020;-92
2023/12/13 11:48:31;;;;;;;117.18;44.58;;;7.90;99.90;;;;;;6192990;23;20023;-92
2023/12/13 11:50:57;;;;;;;77.27;40.27;;;7.90;99.90;;;;;;6217894;23;20059;-93
2023/12/13 11:53:25;;;;;;;117.37;51.17;;;7.90;99.90;;;;;;6218263;23;20101;-93
2023/12/13 11:55:59;;;;;;;80.55;38.50;;;7.10;99.90;;;;;;6218630;23;20758;-93
2023/12/13 11:58:36;;;;;;;81.20;37.27;;;7.90;99.90;;;;;;6243848;23;20023;-93
2023/12/13 12:01:19;;;;;;;91.18;43.08;;;7.90;99.90;;;;;;6195335;23;20082;-94
2023/12/13 12:03:56;;;;;;;;;;;;;;;;;;;;;
2023/12/13 12:06:25;;;;;;;86.45;41.63;;;7.90;99.90;;;;;;6243140;23;20020;-93
2023/12/13 12:09:09;;;;;;;;;;;;;;;;;;;;;
2023/12/13 12:11:35;;;;;;;106.95;47.25;;;7.90;99.90;;;;;;6242840;23;20087;-95
2023/12/13 12:14:11;;;;;;;92.25;43.55;;;7.60;99.90;;;;;;6218520;23;20387;-96
2023/12/13 12:16:37;;;;;;;140.00;56.75;;;7.90;99.90;;;;;;6217009;23;20024;-89
2023/12/13 12:19:06;;;;;;;133.93;55.30;;;7.90;99.90;;;;;;6217605;23;20371;-93
2023/12/13 12:21:39;;;;;;;113.25;49.95;;;7.90;99.90;;;;;;6242262;23;20023;-93
2023/12/13 12:24:07;;;;;;;96.93;46.28;;;7.90;99.90;;;;;;6217373;23;20016;-93
2023/12/13 12:26:36;;;;;;;98.60;43.30;;;7.90;99.90;;;;;;6216310;23;20448;-94
2023/12/13 12:29:12;;;;;;;94.57;41.90;;;7.90;99.90;;;;;;6192920;23;20017;-93
2023/12/13 12:31:41;;;;;;;119.07;48.13;;;7.90;99.90;;;;;;6217857;23;20090;-93
2023/12/13 12:34:22;;;;;;;100.80;45.03;;;8.00;99.90;;;;;;6217850;23;20330;-93
2023/12/13 12:36:51;;;;;;;117.07;49.53;;;7.90;99.90;;;;;;6194474;23;20055;-93
2023/12/13 12:39:24;;;;;;;117.75;49.22;;;7.90;99.90;;;;;;6217605;23;20087;-93
2023/12/13 12:41:56;;;;;;;111.18;48.33;;;7.90;99.90;;;;;;6193607;23;20066;-93
2023/12/13 12:44:29;;;;;;;102.65;45.95;;;8.00;99.90;;;;;;6217714;23;20016;-94
2023/12/13 12:47:08;;;;;;;;;;;;;;;;;;;;;
2023/12/13 12:49:36;;;;;;;110.70;51.25;;;7.90;99.90;;;;;;6219518;23;20023;-94
2023/12/13 12:52:14;;;;;;;119.75;53.13;;;7.90;99.90;;;;;;6218225;23;20456;-93
2023/12/13 12:57:38;;;;;;;127.38;54.67;;;8.00;99.90;;;;;;6221925;23;20021;-94
2023/12/13 13:00:13;;;;;;;126.82;55.95;;;8.00;99.90;;;;;;6217761;23;20028;-94
2023/12/13 13:02:41;;;;;;;166.65;64.45;;;8.00;99.90;;;;;;6193519;23;20016;-93
2023/12/13 13:08:10;;;;;;;103.40;52.65;;;8.00;99.90;;;;;;6218189;23;20027;-93
2023/12/13 13:10:39;;;;;;;103.93;49.70;;;7.90;99.90;;;;;;6193839;23;20603;-93
2023/12/13 13:13:17;;;;;;;129.90;55.85;;;8.00;99.90;;;;;;6219757;23;20020;-92
2023/12/13 13:15:46;;;;;;;101.60;47.97;;;8.00;99.90;;;;;;6218209;23;20395;-93
2023/12/13 13:18:22;;;;;;;;;;;;;;;;;;;;;
2023/12/13 13:20:56;;;;;;;114.80;51.47;;;7.60;99.90;;;;;;6243954;23;20094;-92
2023/12/13 13:23:32;;;;;;;93.20;45.78;;;8.10;99.90;;;;;;6218890;23;20023;-93
2023/12/13 13:26:03;;;;;;;120.60;52.65;;;8.00;99.90;;;;;;6194865;23;20348;-91
2023/12/13 13:28:34;;;;;;;102.35;49.00;;;7.10;99.90;;;;;;6218761;23;20016;-92
2023/12/13 13:31:00;;;;;;;131.73;55.00;;;8.00;99.90;;;;;;6220107;23;20019;-92
2023/12/13 13:33:38;;;;;;;126.17;56.83;;;8.00;99.90;;;;;;6220656;23;20359;-92
2023/12/13 13:36:23;;;;;;;115.63;52.67;;;8.40;99.90;;;;;;6219335;23;20340;-93
2023/12/13 13:39:03;;;;;;;123.47;52.17;;;8.00;99.90;;;;;;6218829;23;20344;-92
2023/12/13 13:41:37;;;;;;;121.40;54.45;;;8.70;99.90;;;;;;6218960;23;20511;-92
2023/12/13 13:44:29;;;;;;;122.72;54.17;;;8.00;99.90;;;;;;6218997;23;20095;-93
2023/12/13 13:47:20;;;;;;;115.38;52.28;;;8.10;99.90;;;;;;6223597;23;20028;-91
2023/12/13 13:50:05;;;;;;;114.13;53.42;;;8.00;99.90;;;;;;6218601;23;20020;-92
2023/12/13 13:52:36;;;;;;;115.72;51.75;;;8.00;99.90;;;;;;6195335;23;20012;-91
2023/12/13 13:55:05;;;;;;;110.07;50.00;;;8.00;99.90;;;;;;6193432;23;20507;-92
2023/12/13 13:57:36;;;;;;;110.25;49.95;;;8.00;99.90;;;;;;6217487;23;20023;-92
2023/12/13 14:00:20;;;;;;;115.00;53.80;;;7.50;99.90;;;;;;6193647;23;20027;-92
2023/12/13 14:02:55;;;;;;;123.30;55.58;;;8.00;99.90;;;;;;6218507;23;20031;-92
2023/12/13 14:05:33;;;;;;;104.00;52.22;;;7.90;99.90;;;;;;6194719;23;20027;-93
2023/12/13 14:08:02;;;;;;;112.18;52.47;;;8.00;99.90;;;;;;6217159;23;20394;-92
2023/12/13 14:10:30;;;;;;;96.72;46.20;;;8.00;99.90;;;;;;6217375;23;20026;-92
2023/12/13 14:13:01;;;;;;;111.00;50.90;;;8.80;99.90;;;;;;6193221;23;20020;-93
2023/12/13 14:15:29;;;;;;;111.07;51.17;;;7.90;99.90;;;;;;6192723;23;20106;-92
2023/12/13 14:18:08;;;;;;;82.45;35.83;;;8.00;99.90;;;;;;6193702;23;20024;-92
2023/12/13 14:20:44;;;;;;;36.60;18.33;;;7.90;99.90;;;;;;6217298;23;20016;-91
2023/12/13 14:23:20;;;;;;;36.42;17.92;;;8.00;99.90;;;;;;6194157;23;20352;-95
2023/12/13 14:25:49;;;;;;;23.67;13.68;;;7.80;99.90;;;;;;6217818;23;20012;-92
2023/12/13 14:28:23;;;;;;;26.85;10.98;;;7.70;99.90;;;;;;6193804;23;20024;-92
2023/12/13 14:30:51;;;;;;;17.50;8.88;;;7.50;99.90;;;;;;6218858;23;20039;-93
2023/12/13 14:33:18;;;;;;;14.75;8.85;;;7.40;99.90;;;;;;6218817;23;20016;-91
2023/12/13 14:35:46;;;;;;;17.33;9.48;;;7.40;99.90;;;;;;6218352;23;20343;-91
2023/12/13 14:38:20;;;;;;;13.48;8.68;;;7.40;99.90;;;;;;6217427;23;20095;-91
2023/12/13 14:40:48;;;;;;;12.18;8.73;;;7.30;99.90;;;;;;6216848;23;20050;-92
2023/12/13 14:43:19;;;;;;;13.18;7.57;;;6.60;99.90;;;;;;6193568;23;20103;-93
2023/12/13 14:45:48;;;;;;;10.40;6.38;;;7.40;99.90;;;;;;6194197;23;20016;-91
2023/12/13 14:48:16;;;;;;;10.93;6.50;;;7.20;99.90;;;;;;6217114;23;20455;-90
2023/12/13 14:50:43;;;;;;;10.85;6.65;;;7.10;99.90;;;;;;6218140;23;20027;-91
2023/12/13 14:53:08;;;;;;;;;;;7.10;99.90;;;;;;6193960;23;20109;-91
2023/12/13 14:55:37;;;;;;;12.90;7.10;;;7.00;99.90;;;;;;6218282;23;19919;-91
2023/12/13 14:58:08;;;;;;;9.05;6.50;;;7.00;99.90;;;;;;6219447;23;20054;-90
2023/12/13 15:00:33;;;;;;;9.05;5.80;;;7.10;99.90;;;;;;6218057;23;20468;-91
2023/12/13 15:03:03;;;;;;;11.87;6.73;;;6.90;99.90;;;;;;6243686;23;20016;-90
2023/12/13 15:05:32;;;;;;;12.00;8.10;;;6.80;99.90;;;;;;6244028;23;20019;-94
2023/12/13 15:08:05;;;;;;;12.32;8.15;;;6.80;99.90;;;;;;6217400;23;20099;-90
2023/12/13 15:10:38;;;;;;;16.25;7.65;;;7.00;99.90;;;;;;6218311;23;20012;-94
2023/12/13 15:13:13;;;;;;;13.70;8.73;;;6.80;99.90;;;;;;6218200;23;20440;-91
2023/12/13 15:15:39;;;;;;;12.75;8.25;;;6.80;99.90;;;;;;6217692;23;20479;-91
2023/12/13 15:18:05;;;;;;;14.60;9.25;;;6.80;99.90;;;;;;6217874;23;20020;-90
2023/12/13 15:20:31;;;;;;;19.97;10.20;;;5.80;99.90;;;;;;6217578;23;20019;-91
2023/12/13 15:23:08;;;;;;;20.58;9.40;;;6.70;99.90;;;;;;6193416;23;20016;-91
2023/12/13 15:25:34;;;;;;;12.73;8.15;;;6.70;99.90;;;;;;6218297;23;20022;-92
2023/12/13 15:28:03;;;;;;;10.23;7.00;;;6.60;99.90;;;;;;6218835;23;20027;-93
2023/12/13 15:30:39;;;;;;;8.93;6.68;;;6.70;99.90;;;;;;6242939;23;20375;-94
2023/12/13 15:33:07;;;;;;;8.20;5.78;;;6.60;99.90;;;;;;6218337;23;20344;-93
2023/12/13 15:35:35;;;;;;;8.93;6.25;;;6.50;99.90;;;;;;6219230;23;20095;-93
2023/12/13 15:38:03;;;;;;;8.25;5.82;;;6.50;99.90;;;;;;6219424;23;20020;-91
2023/12/13 15:40:29;;;;;;;9.38;6.50;;;6.50;99.90;;;;;;6194542;23;20082;-92
2023/12/13 15:42:57;;;;;;;10.60;6.43;;;6.50;99.90;;;;;;6219143;23;20573;-92
2023/12/13 15:45:32;;;;;;;9.38;7.05;;;5.80;99.90;;;;;;6194724;23;20020;-91
2023/12/13 15:48:00;;;;;;;9.38;6.85;;;6.30;99.90;;;;;;6218823;23;20024;-92
2023/12/13 15:50:26;;;;;;;9.57;6.88;;;6.50;99.90;;;;;;6219524;23;20329;-91
2023/12/13 15:52:54;;;;;;;9.13;6.85;;;6.30;99.90;;;;;;6193744;23;20020;-91
2023/12/13 15:55:27;;;;;;;7.93;6.05;;;6.30;99.90;;;;;;6194451;23;20020;-93
2023/12/13 15:57:55;;;;;;;7.13;5.47;;;5.70;99.90;;;;;;6218912;23;20401;-92
2023/12/13 16:00:28;;;;;;;8.00;5.70;;;5.90;99.90;;;;;;6219187;23;20435;-93
2023/12/13 16:02:57;;;;;;;7.93;5.90;;;6.20;99.90;;;;;;6219272;23;20098;-92
2023/12/13 16:05:27;;;;;;;8.05;5.57;;;6.20;99.90;;;;;;6219920;23;20081;-93
2023/12/13 16:08:08;;;;;;;;;;;;;;;;;;;;;
2023/12/13 16:10:43;;;;;;;11.30;7.70;;;6.10;99.90;;;;;;6221976;23;20016;-93
2023/12/13 16:13:09;;;;;;;12.85;9.77;;;6.20;99.90;;;;;;6219749;23;20023;-93
2023/12/13 16:15:35;;;;;;;13.20;10.07;;;6.20;99.90;;;;;;6244468;23;20087;-92
2023/12/13 16:18:13;;;;;;;16.57;10.87;;;6.10;99.90;;;;;;6218357;23;20031;-93
2023/12/13 16:20:47;;;;;;;15.25;10.73;;;6.10;99.90;;;;;;6219357;23;20020;-93
2023/12/13 16:23:22;;;;;;;12.07;9.57;;;6.00;99.90;;;;;;6195322;23;20017;-93
2023/12/13 16:25:53;;;;;;;14.27;10.00;;;6.00;99.90;;;;;;6219321;23;20073;-94
2023/12/13 16:28:19;;;;;;;13.93;9.77;;;5.90;99.90;;;;;;6219605;23;20016;-92
2023/12/13 16:30:50;;;;;;;15.73;10.37;;;6.60;99.90;;;;;;6218689;23;20052;-91
2023/12/13 16:33:20;;;;;;;15.00;11.23;;;5.90;99.90;;;;;;6219312;23;20333;-93
2023/12/13 16:35:48;;;;;;;16.33;11.38;;;5.90;99.90;;;;;;6218520;23;20187;-93
2023/12/13 16:38:20;;;;;;;15.77;12.02;;;5.30;99.90;;;;;;6218481;23;20149;-92
2023/12/13 16:40:55;;;;;;;21.13;12.43;;;5.90;99.90;;;;;;6195085;23;20031;-93
2023/12/13 16:43:32;;;;;;;22.55;14.40;;;5.80;99.90;;;;;;6222010;23;20016;-93
2023/12/13 16:46:01;;;;;;;22.08;14.73;;;5.80;99.90;;;;;;6195597;23;20458;-92
2023/12/13 16:48:40;;;;;;;21.70;14.07;;;5.90;99.90;;;;;;6221067;23;20023;-93
2023/12/13 16:51:56;;;;;;;22.35;14.90;;;5.00;99.90;;;;;;6221986;23;20032;-95
2023/12/13 16:55:02;;;;;;;22.40;15.32;;;5.90;99.90;;;;;;6226105;23;20055;-95
2023/12/13 16:57:28;;;;;;;27.10;16.55;;;5.80;99.90;;;;;;6219806;23;20027;-93
2023/12/13 16:59:58;;;;;;;27.30;17.17;;;5.70;99.90;;;;;;6220344;23;20016;-92
2023/12/13 17:02:30;;;;;;;25.70;16.15;;;5.70;99.90;;;;;;6197008;23;20016;-93
2023/12/13 17:04:59;;;;;;;29.42;18.67;;;5.60;99.90;;;;;;6196170;23;20020;-92
2023/12/13 17:07:28;;;;;;;27.88;18.05;;;5.60;99.90;;;;;;6220293;23;20022;-91
2023/12/13 17:09:59;;;;;;;28.90;19.95;;;5.70;99.90;;;;;;6196398;23;20023;-93
2023/12/13 17:12:25;;;;;;;29.20;17.90;;;5.10;99.90;;;;;;6221224;23;20016;-91
2023/12/13 17:15:03;;;;;;;27.17;18.30;;;5.60;99.90;;;;;;6195042;23;20102;-91
2023/12/13 17:17:30;;;;;;;25.02;16.70;;;5.50;99.90;;;;;;6220028;23;20074;-90
2023/12/13 17:19:56;;;;;;;26.40;16.60;;;5.60;99.90;;;;;;6220188;23;20471;-92
2023/12/13 17:22:32;;;;;;;21.83;14.80;;;4.60;99.90;;;;;;6221433;23;20020;-92
2023/12/13 17:24:59;;;;;;;22.25;15.45;;;5.50;99.90;;;;;;6194753;23;20051;-94
2023/12/13 17:27:40;;;;;;;;;;;;;;;;;;;;;
2023/12/13 17:30:10;;;;;;;27.17;16.35;;;5.40;99.90;;;;;;6222255;23;20471;-93
2023/12/13 17:32:38;;;;;;;21.83;13.95;;;5.30;99.90;;;;;;6196302;23;20051;-95
2023/12/13 17:35:10;;;;;;;20.83;13.57;;;5.40;99.90;;;;;;6195954;23;20039;-93
2023/12/13 17:37:36;;;;;;;20.48;13.45;;;5.30;99.90;;;;;;6221290;23;20082;-94
2023/12/13 17:40:08;;;;;;;18.67;12.68;;;5.40;99.90;;;;;;6220726;23;20019;-94
2023/12/13 17:42:34;;;;;;;19.70;13.95;;;5.30;99.90;;;;;;6195427;23;20468;-94
2023/12/13 17:45:03;;;;;;;19.00;13.35;;;5.30;99.90;;;;;;6195955;23;20109;-94
2023/12/13 17:47:29;;;;;;;14.80;11.68;;;5.30;99.90;;;;;;6196100;23;20074;-93
2023/12/13 17:49:58;;;;;;;19.53;13.20;;;5.90;99.90;;;;;;6195526;23;20024;-92
2023/12/13 17:52:31;;;;;;;17.55;11.73;;;5.20;99.90;;;;;;6195765;23;20020;-93
2023/12/13 17:55:00;;;;;;;16.88;10.68;;;5.20;99.90;;;;;;6194564;23;20020;-92
2023/12/13 17:57:30;;;;;;;13.27;10.02;;;5.10;99.90;;;;;;6220238;23;20043;-93
2023/12/13 17:59:59;;;;;;;13.65;9.55;;;6.40;99.90;;;;;;6197440;23;20047;-93
2023/12/13 18:02:37;;;;;;;11.82;9.07;;;5.00;99.90;;;;;;6246604;23;20051;-94
2023/12/13 18:05:11;;;;;;;12.45;9.38;;;4.40;99.90;;;;;;6174626;23;20051;-93
2023/12/13 18:07:37;;;;;;;12.43;9.85;;;5.10;99.90;;;;;;6222510;23;20016;-93
2023/12/13 18:10:13;;;;;;;13.13;10.30;;;5.30;99.90;;;;;;6222290;23;20070;-93
2023/12/13 18:12:41;;;;;;;15.25;9.80;;;5.20;99.90;;;;;;6195603;23;20024;-92
2023/12/13 18:15:17;;;;;;;;;;;;;;;;;;;;;
2023/12/13 18:17:53;;;;;;;;;;;;;;;;;;;;;
2023/12/13 18:20:25;;;;;;;13.07;9.93;;;3.80;99.90;;;;;;6246548;23;20387;-93
2023/12/13 18:22:53;;;;;;;13.02;9.57;;;5.00;99.90;;;;;;6221395;23;20383;-93
2023/12/13 18:26:21;;;;;;;;;;;;;;;;;;;;;
2023/12/13 18:28:58;;;;;;;14.13;10.48;;;3.80;99.90;;;;;;6245548;23;20016;-91
2023/12/13 18:31:24;;;;;;;13.73;9.95;;;5.00;99.90;;;;;;6195236;23;20059;-92
2023/12/13 18:33:55;;;;;;;17.70;11.30;;;5.00;99.90;;;;;;6244771;23;20016;-90
2023/12/13 18:36:25;;;;;;;13.85;11.32;;;4.90;99.90;;;;;;6195440;23;20031;-91
2023/12/13 18:38:56;;;;;;;16.25;12.25;;;5.00;99.90;;;;;;6220054;23;20012;-93
2023/12/13 18:41:33;;;;;;;15.75;11.05;;;4.90;99.90;;;;;;6220325;23;20012;-93
2023/12/13 18:44:01;;;;;;;15.70;11.43;;;5.00;99.90;;;;;;6195371;23;20456;-94